createdAt,value
2023-03-04T00:03:37.581Z,6.60
2023-03-04T00:08:40.880Z,7.20
2023-03-04T00:13:44.117Z,6.60
2023-03-04T00:18:48.824Z,8.60
2023-03-04T00:23:52.433Z,7.10
2023-03-04T00:28:55.555Z,7.50
2023-03-04T00:34:00.130Z,6.87
2023-03-04T00:39:03.299Z,7.80
2023-03-04T00:44:06.866Z,7.87
2023-03-04T00:49:11.683Z,8.07
2023-03-04T00:54:15.063Z,7.43
2023-03-04T00:59:18.263Z,8.87
2023-03-04T01:04:22.913Z,7.53
2023-03-04T01:09:26.862Z,7.43
2023-03-04T01:14:30.112Z,8.93
2023-03-04T01:19:34.536Z,8.37
2023-03-04T01:24:37.888Z,8.30
2023-03-04T01:29:42.609Z,9.57
2023-03-04T01:34:47.143Z,8.00
2023-03-04T01:39:50.357Z,9.93
2023-03-04T01:44:53.954Z,9.50
2023-03-04T01:49:59.681Z,9.07
2023-03-04T01:55:03.882Z,8.80
2023-03-04T02:00:20.837Z,8.73
2023-03-04T02:05:25.896Z,7.87
2023-03-04T02:10:29.722Z,8.27
2023-03-04T02:15:33.755Z,8.03
2023-03-04T02:20:46.798Z,8.70
2023-03-04T02:25:54.671Z,9.27
2023-03-04T02:30:59.690Z,9.30
2023-03-04T02:36:03.484Z,9.50
2023-03-04T02:41:07.856Z,8.87
2023-03-04T02:46:14.614Z,9.00
2023-03-04T02:51:18.260Z,10.17
2023-03-04T02:56:21.624Z,9.10
2023-03-04T03:01:29.715Z,8.30
2023-03-04T03:06:33.572Z,8.77
2023-03-04T03:11:37.108Z,7.17
2023-03-04T03:16:43.318Z,8.57
2023-03-04T03:21:47.426Z,8.47
2023-03-04T03:26:50.829Z,7.10
2023-03-04T03:31:57.076Z,8.70
2023-03-04T03:37:00.591Z,7.80
2023-03-04T03:42:04.270Z,8.17
2023-03-04T03:47:09.363Z,7.40
2023-03-04T03:52:13.085Z,7.60
2023-03-04T03:57:16.593Z,6.60
2023-03-04T04:02:21.858Z,9.33
2023-03-04T04:07:25.780Z,7.93
2023-03-04T04:12:29.060Z,6.93
2023-03-04T04:17:33.609Z,7.30
2023-03-04T04:22:36.754Z,7.13
2023-03-04T04:27:39.962Z,6.73
2023-03-04T04:32:44.901Z,6.43
2023-03-04T04:37:48.527Z,5.90
2023-03-04T04:42:52.471Z,6.40
2023-03-04T04:47:58.275Z,5.33
2023-03-04T04:53:02.427Z,6.73
2023-03-04T04:58:07.923Z,4.90
2023-03-04T05:03:12.769Z,5.13
2023-03-04T05:08:15.964Z,6.60
2023-03-04T05:13:19.535Z,4.83
2023-03-04T05:18:25.289Z,4.40
2023-03-04T05:23:30.387Z,5.00
2023-03-04T05:28:34.024Z,4.70
2023-03-04T05:33:39.034Z,5.60
2023-03-04T05:38:42.178Z,4.73
2023-03-04T05:43:45.500Z,4.87
2023-03-04T05:48:50.016Z,4.70
2023-03-04T05:53:53.350Z,4.10
2023-03-04T05:58:59.332Z,5.47
2023-03-04T06:04:04.355Z,5.63
2023-03-04T06:09:07.730Z,5.57
2023-03-04T06:14:11.212Z,4.33
2023-03-04T06:19:15.869Z,4.53
2023-03-04T06:24:19.230Z,5.10
2023-03-04T06:29:22.617Z,5.07
2023-03-04T06:34:28.337Z,4.37
2023-03-04T06:39:31.656Z,4.97
2023-03-04T06:44:34.926Z,5.00
2023-03-04T06:49:39.635Z,4.23
2023-03-04T06:54:42.829Z,4.13
2023-03-04T06:59:46.117Z,4.07
2023-03-04T07:04:52.328Z,4.30
2023-03-04T07:09:56.880Z,3.73
2023-03-04T07:15:00.550Z,4.17
2023-03-04T07:20:06.208Z,3.70
2023-03-04T07:25:10.331Z,3.50
2023-03-04T07:30:14.526Z,3.03
2023-03-04T07:35:19.689Z,2.90
2023-03-04T07:40:23.082Z,3.33
2023-03-04T07:45:27.990Z,2.87
2023-03-04T07:50:32.845Z,3.20
2023-03-04T07:55:36.300Z,2.10
2023-03-04T08:00:41.465Z,2.87
2023-03-04T08:05:46.589Z,2.60
2023-03-04T08:10:49.844Z,2.47
2023-03-04T08:15:53.251Z,2.63
2023-03-04T08:20:58.162Z,2.43
2023-03-04T08:26:01.477Z,2.27
2023-03-04T08:31:04.909Z,2.57
2023-03-04T08:36:09.855Z,2.47
2023-03-04T08:41:14.382Z,2.43
2023-03-04T08:46:17.591Z,2.27
2023-03-04T08:51:22.429Z,2.70
2023-03-04T08:56:25.898Z,1.93
2023-03-04T09:01:29.468Z,2.10
2023-03-04T09:06:34.572Z,2.20
2023-03-04T09:11:38.330Z,2.03
2023-03-04T09:16:41.538Z,2.30
2023-03-04T09:21:46.196Z,2.23
2023-03-04T09:26:51.981Z,2.57
2023-03-04T09:31:55.394Z,2.00
2023-03-04T09:36:59.890Z,1.30
2023-03-04T09:42:06.070Z,1.97
2023-03-04T09:47:15.404Z,1.37
2023-03-04T09:52:31.423Z,1.33
2023-03-04T09:57:48.168Z,1.33
2023-03-04T10:03:07.083Z,1.10
2023-03-04T10:08:33.573Z,0.83
2023-03-04T10:13:42.436Z,0.60
2023-03-04T10:18:50.523Z,0.80
2023-03-04T10:23:55.437Z,1.00
2023-03-04T10:28:58.923Z,0.93
2023-03-04T10:34:03.816Z,0.67
2023-03-04T10:39:11.943Z,1.00
2023-03-04T10:44:18.051Z,0.60
2023-03-04T10:49:21.871Z,0.70
2023-03-04T10:54:30.015Z,0.67
2023-03-04T10:59:47.774Z,0.60
2023-03-04T11:04:53.853Z,1.20
2023-03-04T11:10:09.703Z,0.50
2023-03-04T11:15:20.534Z,0.63
2023-03-04T11:20:32.772Z,0.77
2023-03-04T11:25:42.277Z,0.53
2023-03-04T11:30:49.567Z,0.70
2023-03-04T11:36:00.723Z,0.77
2023-03-04T11:41:12.345Z,0.53
2023-03-04T11:46:56.883Z,0.80
2023-03-04T11:52:10.436Z,0.80
2023-03-04T11:57:30.868Z,0.77
2023-03-04T12:02:42.478Z,0.70
2023-03-04T12:08:16.171Z,0.50
2023-03-04T12:13:37.324Z,0.57
2023-03-04T12:18:52.921Z,0.50
2023-03-04T12:24:22.089Z,0.60
2023-03-04T12:29:37.459Z,0.57
2023-03-04T12:35:10.045Z,0.90
2023-03-04T12:40:41.919Z,0.73
2023-03-04T12:45:56.406Z,0.43
2023-03-04T12:51:14.036Z,0.60
2023-03-04T12:56:26.123Z,0.30
2023-03-04T13:01:38.024Z,0.90
2023-03-04T13:06:48.777Z,0.80
2023-03-04T13:12:05.856Z,0.63
2023-03-04T13:17:46.163Z,0.60
2023-03-04T13:22:59.450Z,0.87
2023-03-04T13:28:28.587Z,0.53
2023-03-04T13:33:48.116Z,1.20
2023-03-04T13:39:01.696Z,0.80
2023-03-04T13:44:27.875Z,0.90
2023-03-04T13:49:31.589Z,1.00
2023-03-04T13:54:36.603Z,0.70
2023-03-04T13:59:46.498Z,0.80
2023-03-04T14:05:00.118Z,11.00
2023-03-04T14:10:08.031Z,3.03
2023-03-04T14:15:24.532Z,4.33
2023-03-04T14:20:32.276Z,3.60
2023-03-04T14:25:37.574Z,1.53
2023-03-04T14:30:44.285Z,1.17
2023-03-04T14:35:51.040Z,0.63
2023-03-04T14:41:02.114Z,0.53
2023-03-04T14:46:12.626Z,0.40
2023-03-04T14:51:32.002Z,0.40
2023-03-04T14:56:40.080Z,0.60
2023-03-04T15:01:45.015Z,1.07
2023-03-04T15:06:53.876Z,1.77
2023-03-04T15:12:03.955Z,0.43
2023-03-04T15:17:07.626Z,0.60
2023-03-04T15:22:11.477Z,0.40
2023-03-04T15:27:17.297Z,0.40
2023-03-04T15:32:22.049Z,0.50
2023-03-04T15:37:29.012Z,0.77
2023-03-04T15:42:33.919Z,0.73
2023-03-04T15:47:38.437Z,0.50
2023-03-04T15:52:43.019Z,0.57
2023-03-04T15:57:49.984Z,1.00
2023-03-04T16:02:53.494Z,0.80
2023-03-04T16:07:57.127Z,0.83
2023-03-04T16:13:03.239Z,0.70
2023-03-04T16:18:08.678Z,0.60
2023-03-04T16:23:14.956Z,0.43
2023-03-04T16:28:21.153Z,0.60
2023-03-04T16:33:24.855Z,0.43
2023-03-04T16:38:36.190Z,0.77
2023-03-04T16:43:41.874Z,0.57
2023-03-04T16:48:45.499Z,0.73
2023-03-04T16:53:50.504Z,0.77
2023-03-04T16:58:56.078Z,0.97
2023-03-04T17:04:00.023Z,0.90
2023-03-04T17:09:03.726Z,0.63
2023-03-04T17:14:08.720Z,1.00
2023-03-04T17:19:12.173Z,0.80
2023-03-04T17:24:15.547Z,1.43
2023-03-04T17:29:20.717Z,0.70
2023-03-04T17:34:24.286Z,4.13
2023-03-04T17:39:28.156Z,4.17
2023-03-04T17:44:33.349Z,1.90
2023-03-04T17:49:36.983Z,1.47
2023-03-04T17:54:40.400Z,1.30
2023-03-04T17:59:45.447Z,1.00
2023-03-04T18:04:50.404Z,1.17
2023-03-04T18:09:54.382Z,0.70
2023-03-04T18:14:59.198Z,1.40
2023-03-04T18:20:03.139Z,1.13
2023-03-04T18:25:10.819Z,1.20
2023-03-04T18:30:17.897Z,1.30
2023-03-04T18:35:21.679Z,1.60
2023-03-04T18:40:25.227Z,1.40
2023-03-04T18:45:30.281Z,1.40
2023-03-04T18:50:33.973Z,1.33
2023-03-04T18:55:37.601Z,1.67
2023-03-04T19:00:42.668Z,1.43
2023-03-04T19:05:46.266Z,1.10
2023-03-04T19:10:49.949Z,1.33
2023-03-04T19:15:56.145Z,1.30
2023-03-04T19:21:02.984Z,1.13
2023-03-04T19:26:09.103Z,1.30
2023-03-04T19:31:14.421Z,1.10
2023-03-04T19:36:18.630Z,1.63
2023-03-04T19:41:22.304Z,1.13
2023-03-04T19:46:28.436Z,1.77
2023-03-04T19:51:32.829Z,1.70
2023-03-04T19:56:36.088Z,1.47
2023-03-04T20:01:42.528Z,1.50
2023-03-04T20:06:48.308Z,1.70
2023-03-04T20:11:58.453Z,2.50
2023-03-04T20:17:07.030Z,1.57
2023-03-04T20:22:10.633Z,1.10
2023-03-04T20:27:15.876Z,1.10
2023-03-04T20:32:21.011Z,1.60
2023-03-04T20:37:24.742Z,1.27
2023-03-04T20:42:28.197Z,1.23
2023-03-04T20:47:33.134Z,1.23
2023-03-04T20:52:36.761Z,1.37
2023-03-04T20:57:40.539Z,2.77
2023-03-04T21:02:45.385Z,1.70
2023-03-04T21:07:48.841Z,1.63
2023-03-04T21:12:52.597Z,1.10
2023-03-04T21:17:57.576Z,1.37
2023-03-04T21:23:01.654Z,1.53
2023-03-04T21:28:05.567Z,1.23
2023-03-04T21:33:18.650Z,1.70
2023-03-04T21:38:22.018Z,1.83
2023-03-04T21:43:25.334Z,1.70
2023-03-04T21:48:29.980Z,1.43
2023-03-04T21:53:33.479Z,1.70
2023-03-04T21:58:41.533Z,1.90
2023-03-04T22:03:49.039Z,1.43
2023-03-04T22:08:53.787Z,1.20
2023-03-04T22:13:58.717Z,1.67
2023-03-04T22:19:03.262Z,1.27
2023-03-04T22:24:08.121Z,1.03
2023-03-04T22:29:11.414Z,1.10
2023-03-04T22:34:17.382Z,1.40
2023-03-04T22:39:21.356Z,1.10
2023-03-04T22:44:24.741Z,1.57
2023-03-04T22:49:29.294Z,1.20
2023-03-04T22:54:32.496Z,1.10
2023-03-04T22:59:37.054Z,1.43
2023-03-04T23:04:43.012Z,0.97
2023-03-04T23:09:46.406Z,0.70
2023-03-04T23:14:49.560Z,1.27
2023-03-04T23:19:54.441Z,0.90
2023-03-04T23:24:58.491Z,0.60
2023-03-04T23:30:01.834Z,0.90
2023-03-04T23:35:07.384Z,1.00
2023-03-04T23:40:12.228Z,0.70
2023-03-04T23:45:15.397Z,0.70
2023-03-04T23:50:20.669Z,1.10
2023-03-04T23:55:24.401Z,0.80
